Time;durP1;ratioP1;P1;durP2;ratioP2;P2;SDS_P1;SDS_P2;PMS_P1;PMS_P2;Temp;Humidity;BMP_temperature;BMP_pressure;BME280_temperature;BME280_humidity;BME280_pressure;Samples;Min_cycle;Max_cycle;Signal;HPM_P1;HPM_P2
2023/02/22 00:00:42;;;;;;;1.00;0.90;;;;;;;;;;4263872;27;20046;-36
2023/02/22 00:02:47;;;;;;;1.80;1.20;;;;;;;;;;4282390;27;20110;-36
2023/02/22 00:04:48;;;;;;;1.60;1.02;;;;;;;;;;4281909;27;20046;-36
2023/02/22 00:06:49;;;;;;;1.20;1.10;;;;;;;;;;4268928;27;20051;-36
2023/02/22 00:08:54;;;;;;;1.67;0.70;;;;;;;;;;4265769;27;20055;-37
2023/02/22 00:10:56;;;;;;;0.98;0.88;;;;;;;;;;4282267;27;20080;-36
2023/02/22 00:12:57;;;;;;;1.05;0.90;;;;;;;;;;4281851;27;20046;-36
2023/02/22 00:14:58;;;;;;;2.47;1.02;;;;;;;;;;4269955;27;20103;-36
2023/02/22 00:16:59;;;;;;;1.33;1.08;;;;;;;;;;4267912;27;20121;-36
2023/02/22 00:19:00;;;;;;;1.05;0.90;;;;;;;;;;4277522;27;20046;-36
2023/02/22 00:21:01;;;;;;;1.52;0.93;;;;;;;;;;4272330;27;20081;-36
2023/02/22 00:23:02;;;;;;;1.35;1.05;;;;;;;;;;4281756;27;20050;-36
2023/02/22 00:25:06;;;;;;;1.45;1.13;;;;;;;;;;4280890;27;20114;-38
2023/02/22 00:27:07;;;;;;;1.17;0.90;;;;;;;;;;4268163;27;20397;-35
2023/02/22 00:29:09;;;;;;;1.67;0.95;;;;;;;;;;4274750;27;20051;-37
2023/02/22 00:31:09;;;;;;;0.75;0.75;;;;;;;;;;4256004;27;20164;-36
2023/02/22 00:33:12;;;;;;;1.00;0.90;;;;;;;;;;4281807;27;20157;-37
2023/02/22 00:35:17;;;;;;;1.92;1.15;;;;;;;;;;4278671;27;20501;-36
2023/02/22 00:37:19;;;;;;;1.05;0.82;;;;;;;;;;4270803;27;20074;-36
2023/02/22 00:39:20;;;;;;;1.00;0.80;;;;;;;;;;4281577;27;20053;-35
2023/02/22 00:41:22;;;;;;;0.98;0.88;;;;;;;;;;4281231;27;20050;-36
2023/02/22 00:43:25;;;;;;;0.90;0.80;;;;;;;;;;4262703;27;20520;-36
2023/02/22 00:45:27;;;;;;;1.10;1.00;;;;;;;;;;4262984;27;20046;-36
2023/02/22 00:47:29;;;;;;;0.80;0.80;;;;;;;;;;4261970;27;20405;-35
2023/02/22 00:49:30;;;;;;;1.33;1.23;;;;;;;;;;4281528;27;20038;-36
2023/02/22 00:51:32;;;;;;;0.85;0.77;;;;;;;;;;4268011;27;20043;-35
2023/02/22 00:53:33;;;;;;;1.15;0.80;;;;;;;;;;4278041;27;20069;-35
2023/02/22 00:55:35;;;;;;;1.08;0.90;;;;;;;;;;4269690;27;20054;-37
2023/02/22 00:57:37;;;;;;;1.10;0.90;;;;;;;;;;4281165;27;20050;-37
2023/02/22 00:59:38;;;;;;;1.52;1.10;;;;;;;;;;4281313;27;20046;-36
2023/02/22 01:01:39;;;;;;;1.70;1.27;;;;;;;;;;4266299;27;20050;-36
2023/02/22 01:03:40;;;;;;;1.08;0.88;;;;;;;;;;4261903;27;20482;-35
2023/02/22 01:05:42;;;;;;;1.10;1.00;;;;;;;;;;4281148;27;20400;-35
2023/02/22 01:07:43;;;;;;;1.33;1.13;;;;;;;;;;4269403;27;20043;-35
2023/02/22 01:09:44;;;;;;;0.88;0.75;;;;;;;;;;4277974;27;20042;-36
2023/02/22 01:11:46;;;;;;;1.35;0.93;;;;;;;;;;4281337;27;20042;-36
2023/02/22 01:13:47;;;;;;;0.80;0.63;;;;;;;;;;4262732;27;20585;-36
2023/02/22 01:15:49;;;;;;;1.35;0.90;;;;;;;;;;4278107;27;20055;-36
2023/02/22 01:17:52;;;;;;;1.08;0.88;;;;;;;;;;4277314;27;20481;-36
2023/02/22 01:19:53;;;;;;;0.93;0.80;;;;;;;;;;4262385;27;20047;-36
2023/02/22 01:21:54;;;;;;;0.88;0.88;;;;;;;;;;4255867;27;20076;-36
2023/02/22 01:23:57;;;;;;;0.90;0.80;;;;;;;;;;4273315;27;20054;-36
2023/02/22 01:25:59;;;;;;;2.45;1.40;;;;;;;;;;4274932;27;20042;-35
2023/02/22 01:28:01;;;;;;;1.13;0.90;;;;;;;;;;4263611;27;20043;-35
2023/02/22 01:30:07;;;;;;;0.80;0.65;;;;;;;;;;4276316;27;20087;-36
2023/02/22 01:32:10;;;;;;;0.80;0.77;;;;;;;;;;4248026;27;20132;-37
2023/02/22 01:34:14;;;;;;;0.82;0.80;;;;;;;;;;4262532;27;20038;-36
2023/02/22 01:36:17;;;;;;;0.73;0.73;;;;;;;;;;4261981;27;20050;-39
2023/02/22 01:38:20;;;;;;;1.20;1.10;;;;;;;;;;4281043;27;20042;-36
2023/02/22 01:40:23;;;;;;;2.03;0.90;;;;;;;;;;4262093;27;20046;-36
2023/02/22 01:42:24;;;;;;;1.25;0.90;;;;;;;;;;4280854;27;20087;-36
2023/02/22 01:44:28;;;;;;;0.80;0.80;;;;;;;;;;4271632;27;20046;-36
2023/02/22 01:46:30;;;;;;;0.90;0.88;;;;;;;;;;4263570;27;20046;-36
2023/02/22 01:48:37;;;;;;;1.10;0.90;;;;;;;;;;4280215;27;20091;-36
2023/02/22 01:51:09;;;;;;;0.95;0.80;;;;;;;;;;4281137;27;20038;-37
2023/02/22 01:53:12;;;;;;;1.05;0.82;;;;;;;;;;4245625;27;20073;-36
2023/02/22 01:55:14;;;;;;;1.30;0.98;;;;;;;;;;4263593;27;20046;-36
2023/02/22 01:57:28;;;;;;;1.63;1.00;;;;;;;;;;4263523;27;20095;-36
2023/02/22 01:59:32;;;;;;;1.00;0.90;;;;;;;;;;4256977;27;20057;-37
2023/02/22 02:01:34;;;;;;;0.98;0.90;;;;;;;;;;4280622;27;20042;-36
2023/02/22 02:03:37;;;;;;;1.08;0.90;;;;;;;;;;4262142;27;20124;-35
2023/02/22 02:05:39;;;;;;;0.90;0.70;;;;;;;;;;4280171;27;20055;-35
2023/02/22 02:07:44;;;;;;;1.10;0.90;;;;;;;;;;4280189;27;20121;-35
2023/02/22 02:09:58;;;;;;;1.08;0.93;;;;;;;;;;4280811;27;20131;-35
2023/02/22 02:12:03;;;;;;;1.42;1.17;;;;;;;;;;4279553;27;20045;-36
2023/02/22 02:14:06;;;;;;;1.00;0.90;;;;;;;;;;4268214;27;20099;-36
2023/02/22 02:16:07;;;;;;;1.00;0.90;;;;;;;;;;4272487;27;20446;-35
2023/02/22 02:18:10;;;;;;;1.00;0.90;;;;;;;;;;4274601;27;20057;-36
2023/02/22 02:20:26;;;;;;;1.15;0.95;;;;;;;;;;4230688;27;20469;-36
2023/02/22 02:22:51;;;;;;;1.08;0.93;;;;;;;;;;4244585;27;20054;-37
2023/02/22 02:25:16;;;;;;;0.90;0.80;;;;;;;;;;4257880;27;20055;-37
2023/02/22 02:27:24;;;;;;;1.08;0.90;;;;;;;;;;4263273;27;20087;-38
2023/02/22 02:29:30;;;;;;;1.20;0.70;;;;;;;;;;4254686;27;20395;-35
2023/02/22 02:31:49;;;;;;;1.33;0.90;;;;;;;;;;4268049;27;20601;-35
2023/02/22 02:33:50;;;;;;;0.60;0.60;;;;;;;;;;4266405;27;20043;-36
2023/02/22 02:36:10;;;;;;;1.10;1.00;;;;;;;;;;4274309;27;20188;-36
2023/02/22 02:38:11;;;;;;;;;;;;;;;;;;4265740;27;20524;-37
2023/02/22 02:40:16;;;;;;;1.10;0.90;;;;;;;;;;4266604;27;19915;-36
2023/02/22 02:42:21;;;;;;;1.33;0.90;;;;;;;;;;4273244;27;20050;-35
2023/02/22 02:44:27;;;;;;;1.20;1.10;;;;;;;;;;4254308;27;20043;-36
2023/02/22 02:46:28;;;;;;;1.77;1.05;;;;;;;;;;4280182;27;20042;-37
2023/02/22 02:48:31;;;;;;;1.13;0.80;;;;;;;;;;4281418;27;20046;-37
2023/02/22 02:50:34;;;;;;;0.80;0.75;;;;;;;;;;4278693;27;20351;-37
2023/02/22 02:52:36;;;;;;;0.90;0.77;;;;;;;;;;4273819;27;20071;-35
2023/02/22 02:54:38;;;;;;;1.52;1.08;;;;;;;;;;4283543;27;20051;-36
2023/02/22 02:56:41;;;;;;;0.90;0.80;;;;;;;;;;4282859;27;20050;-36
2023/02/22 02:58:47;;;;;;;1.10;0.80;;;;;;;;;;4264770;27;20051;-36
2023/02/22 03:00:54;;;;;;;1.50;1.13;;;;;;;;;;4264617;27;20047;-38
2023/02/22 03:02:55;;;;;;;0.85;0.80;;;;;;;;;;4282529;27;20098;-35
2023/02/22 03:04:58;;;;;;;0.88;0.75;;;;;;;;;;4281355;27;20058;-38
2023/02/22 03:07:12;;;;;;;1.10;0.82;;;;;;;;;;4270184;27;20046;-36
2023/02/22 03:09:19;;;;;;;0.90;0.80;;;;;;;;;;4283218;27;20038;-36
2023/02/22 03:11:27;;;;;;;1.17;0.80;;;;;;;;;;4233287;27;20052;-36
2023/02/22 03:13:35;;;;;;;0.88;0.88;;;;;;;;;;4251639;27;20398;-33
2023/02/22 03:15:51;;;;;;;0.80;0.73;;;;;;;;;;4263300;27;20050;-36
2023/02/22 03:18:01;;;;;;;0.93;0.80;;;;;;;;;;4279268;27;20050;-36
2023/02/22 03:20:03;;;;;;;;;;;;;;;;;;4247933;27;20043;-35
2023/02/22 03:22:04;;;;;;;;;;;;;;;;;;4271839;27;19915;-37
2023/02/22 03:24:05;;;;;;;;;;;;;;;;;;4258297;27;19914;-36
2023/02/22 03:26:06;;;;;;;;;;;;;;;;;;4275922;27;19923;-37
2023/02/22 03:28:10;;;;;;;;;;;;;;;;;;4266259;27;19940;-36
2023/02/22 03:30:12;;;;;;;;;;;;;;;;;;4261620;27;19915;-35
2023/02/22 03:32:13;;;;;;;;;;;;;;;;;;4250669;27;19959;-36
2023/02/22 03:34:14;;;;;;;;;;;;;;;;;;4264685;27;19915;-36
2023/02/22 03:36:15;;;;;;;;;;;;;;;;;;4264210;27;19915;-36
2023/02/22 03:38:17;;;;;;;;;;;;;;;;;;4252150;27;19958;-38
2023/02/22 03:40:24;;;;;;;;;;;;;;;;;;4263319;27;19915;-36
2023/02/22 03:42:26;;;;;;;;;;;;;;;;;;4264564;27;19926;-38
2023/02/22 03:44:27;;;;;;;;;;;;;;;;;;4255630;27;19919;-36
2023/02/22 03:46:28;;;;;;;;;;;;;;;;;;4259934;27;19919;-36
2023/02/22 03:48:30;;;;;;;;;;;;;;;;;;4281101;27;19959;-35
2023/02/22 03:50:34;;;;;;;;;;;;;;;;;;4270327;27;19915;-36
2023/02/22 03:52:35;;;;;;;;;;;;;;;;;;4255766;27;19915;-37
2023/02/22 03:54:37;;;;;;;;;;;;;;;;;;4264548;27;19926;-36
2023/02/22 03:56:38;;;;;;;;;;;;;;;;;;4262591;27;19962;-35
2023/02/22 03:58:42;;;;;;;;;;;;;;;;;;4251805;27;20267;-36
2023/02/22 04:00:43;;;;;;;;;;;;;;;;;;4256403;27;20012;-35
2023/02/22 04:02:45;;;;;;;;;;;;;;;;;;4265328;27;19919;-36
2023/02/22 04:04:52;;;;;;;;;;;;;;;;;;4260865;27;20318;-36
2023/02/22 04:06:53;;;;;;;;;;;;;;;;;;4260088;27;19922;-35
2023/02/22 04:08:54;;;;;;;;;;;;;;;;;;4261440;27;19919;-35
2023/02/22 04:10:56;;;;;;;;;;;;;;;;;;4246944;27;19945;-36
2023/02/22 04:13:00;;;;;;;;;;;;;;;;;;4255720;27;19963;-35
2023/02/22 04:15:01;;;;;;;;;;;;;;;;;;4264110;27;19919;-37
2023/02/22 04:17:02;;;;;;;;;;;;;;;;;;4251773;27;20006;-35
2023/02/22 04:19:03;;;;;;;;;;;;;;;;;;4282648;27;19919;-36
2023/02/22 04:21:07;;;;;;;;;;;;;;;;;;4263556;27;19915;-38
2023/02/22 04:23:15;;;;;;;;;;;;;;;;;;4251673;27;20219;-36
2023/02/22 04:25:18;;;;;;;;;;;;;;;;;;4263870;27;20369;-36
2023/02/22 04:27:21;;;;;;;;;;;;;;;;;;4263759;27;19915;-36
2023/02/22 04:29:22;;;;;;;;;;;;;;;;;;4263882;27;19914;-35
2023/02/22 04:31:23;;;;;;;;;;;;;;;;;;4263922;27;19919;-35
2023/02/22 04:33:25;;;;;;;;;;;;;;;;;;4262182;27;19960;-35
2023/02/22 04:35:26;;;;;;;;;;;;;;;;;;4251269;27;19954;-37
2023/02/22 04:37:27;;;;;;;;;;;;;;;;;;4255490;27;19915;-36
2023/02/22 04:39:29;;;;;;;;;;;;;;;;;;4257806;27;19915;-35
2023/02/22 04:41:30;;;;;;;;;;;;;;;;;;4263223;27;20434;-36
2023/02/22 04:43:32;;;;;;;;;;;;;;;;;;4263726;27;20420;-35
2023/02/22 04:45:46;;;;;;;;;;;;;;;;;;4263478;27;19923;-39
2023/02/22 04:47:48;;;;;;;;;;;;;;;;;;4234372;27;19964;-36
2023/02/22 04:49:51;;;;;;;;;;;;;;;;;;4246542;27;20433;-35
2023/02/22 04:51:53;;;;;;;;;;;;;;;;;;4259586;27;19915;-36
2023/02/22 04:53:57;;;;;;;;;;;;;;;;;;4252198;27;19922;-36
2023/02/22 04:55:58;;;;;;;;;;;;;;;;;;4237314;27;20371;-36
2023/02/22 04:58:01;;;;;;;;;;;;;;;;;;4258570;27;19939;-35
2023/02/22 05:00:03;;;;;;;;;;;;;;;;;;4250235;27;20407;-36
2023/02/22 05:02:05;;;;;;;;;;;;;;;;;;4258690;27;19923;-36
2023/02/22 05:04:06;;;;;;;;;;;;;;;;;;4255972;27;19919;-35
2023/02/22 05:06:06;;;;;;;;;;;;;;;;;;4262974;27;19918;-38
2023/02/22 05:08:08;;;;;;;;;;;;;;;;;;4250287;27;20339;-35
2023/02/22 05:10:09;;;;;;;;;;;;;;;;;;4242438;27;19915;-38
2023/02/22 05:12:10;;;;;;;;;;;;;;;;;;4254358;27;20002;-36
2023/02/22 05:14:11;;;;;;;;;;;;;;;;;;4264682;27;19922;-35
2023/02/22 05:16:12;;;;;;;;;;;;;;;;;;4258270;27;19919;-35
2023/02/22 05:18:13;;;;;;;;;;;;;;;;;;4261260;27;19922;-35
2023/02/22 05:20:14;;;;;;;;;;;;;;;;;;4253202;27;19938;-36
2023/02/22 05:22:15;;;;;;;;;;;;;;;;;;4263946;27;19915;-36
2023/02/22 05:24:16;;;;;;;;;;;;;;;;;;4273857;27;19914;-37
2023/02/22 05:26:18;;;;;;;;;;;;;;;;;;4274073;27;19926;-36
2023/02/22 05:28:18;;;;;;;;;;;;;;;;;;4281509;27;19954;-36
2023/02/22 05:30:22;;;;;;;;;;;;;;;;;;4281339;27;19966;-35
2023/02/22 05:32:23;;;;;;;;;;;;;;;;;;4277129;27;19926;-37
2023/02/22 05:34:25;;;;;;;;;;;;;;;;;;4272556;27;19914;-36
2023/02/22 05:36:26;;;;;;;;;;;;;;;;;;4281067;27;19975;-36
2023/02/22 05:38:27;;;;;;;;;;;;;;;;;;4267113;27;19962;-35
2023/02/22 05:40:28;;;;;;;;;;;;;;;;;;4281513;27;19959;-35
2023/02/22 05:42:29;;;;;;;;;;;;;;;;;;4274571;27;19927;-37
2023/02/22 05:44:30;;;;;;;;;;;;;;;;;;4273843;27;19968;-36
2023/02/22 05:46:32;;;;;;;;;;;;;;;;;;4281509;27;19981;-36
2023/02/22 05:48:33;;;;;;;;;;;;;;;;;;4281257;27;19915;-36
2023/02/22 05:50:34;;;;;;;;;;;;;;;;;;4275989;27;19919;-35
2023/02/22 05:52:36;;;;;;;;;;;;;;;;;;4273167;27;19936;-35
2023/02/22 05:54:37;;;;;;;;;;;;;;;;;;4281648;27;19963;-35
2023/02/22 05:56:38;;;;;;;;;;;;;;;;;;4266864;27;19915;-36
2023/02/22 05:58:39;;;;;;;;;;;;;;;;;;4262955;27;19919;-35
2023/02/22 06:00:40;;;;;;;;;;;;;;;;;;4260151;27;19931;-36
2023/02/22 06:02:42;;;;;;;;;;;;;;;;;;4279093;27;19922;-35
2023/02/22 06:04:43;;;;;;;;;;;;;;;;;;4264648;27;19944;-39
2023/02/22 06:06:44;;;;;;;;;;;;;;;;;;4249240;27;19923;-35
2023/02/22 06:08:45;;;;;;;;;;;;;;;;;;4266292;27;20339;-37
2023/02/22 06:10:47;;;;;;;;;;;;;;;;;;4278648;27;19964;-37
2023/02/22 06:12:48;;;;;;;;;;;;;;;;;;4254081;27;19922;-36
2023/02/22 06:14:49;;;;;;;;;;;;;;;;;;4282687;27;19918;-36
2023/02/22 06:16:50;;;;;;;;;;;;;;;;;;4267720;27;20372;-41
2023/02/22 06:18:51;;;;;;;;;;;;;;;;;;4268261;27;19922;-36
2023/02/22 06:20:52;;;;;;;;;;;;;;;;;;4282655;27;19963;-36
2023/02/22 06:22:54;;;;;;;;;;;;;;;;;;4272246;27;19926;-36
2023/02/22 06:24:54;;;;;;;;;;;;;;;;;;4277544;27;20332;-37
2023/02/22 06:26:55;;;;;;;;;;;;;;;;;;4281695;27;19999;-36
2023/02/22 06:28:56;;;;;;;;;;;;;;;;;;4275370;27;19922;-36
2023/02/22 06:30:57;;;;;;;;;;;;;;;;;;4271708;27;19972;-36
2023/02/22 06:32:58;;;;;;;;;;;;;;;;;;4275931;27;20083;-37
2023/02/22 06:35:00;;;;;;;;;;;;;;;;;;4249256;27;19923;-36
2023/02/22 06:37:01;;;;;;;;;;;;;;;;;;4268253;27;19918;-36
2023/02/22 06:39:02;;;;;;;;;;;;;;;;;;4281837;27;20310;-36
2023/02/22 06:41:03;;;;;;;;;;;;;;;;;;4274928;27;19919;-38
2023/02/22 06:43:04;;;;;;;;;;;;;;;;;;4274479;27;20317;-38
2023/02/22 06:45:05;;;;;;;;;;;;;;;;;;4273523;27;19926;-36
2023/02/22 06:47:06;;;;;;;;;;;;;;;;;;4277748;27;19919;-40
2023/02/22 06:49:08;;;;;;;;;;;;;;;;;;4267348;27;19919;-37
2023/02/22 06:51:08;;;;;;;;;;;;;;;;;;4266022;27;20033;-38
2023/02/22 06:53:10;;;;;;;;;;;;;;;;;;4265193;27;20389;-38
2023/02/22 06:55:12;;;;;;;;;;;;;;;;;;4267060;27;19933;-39
2023/02/22 06:57:13;;;;;;;;;;;;;;;;;;4274193;27;19918;-37
2023/02/22 06:59:14;;;;;;;;;;;;;;;;;;4262392;27;20421;-37
2023/02/22 07:01:15;;;;;;;;;;;;;;;;;;4267971;27;19919;-37
2023/02/22 07:03:16;;;;;;;;;;;;;;;;;;4264503;27;19925;-37
2023/02/22 07:05:18;;;;;;;;;;;;;;;;;;4264718;27;20346;-38
2023/02/22 07:07:18;;;;;;;;;;;;;;;;;;4270257;27;19926;-38
2023/02/22 07:09:20;;;;;;;;;;;;;;;;;;4266985;27;19963;-37
2023/02/22 07:11:21;;;;;;;;;;;;;;;;;;4245810;27;19930;-39
2023/02/22 07:13:22;;;;;;;;;;;;;;;;;;4267813;27;20373;-38
2023/02/22 07:15:23;;;;;;;;;;;;;;;;;;4267844;27;20362;-37
2023/02/22 07:17:24;;;;;;;;;;;;;;;;;;4268454;27;20074;-41
2023/02/22 07:19:25;;;;;;;;;;;;;;;;;;4265605;27;20381;-36
2023/02/22 07:21:27;;;;;;;;;;;;;;;;;;4260727;27;21404;-40
2023/02/22 07:23:28;;;;;;;;;;;;;;;;;;4268430;27;20065;-36
2023/02/22 07:25:29;;;;;;;;;;;;;;;;;;4253308;27;19927;-37
2023/02/22 07:27:30;;;;;;;;;;;;;;;;;;4261688;27;19919;-36
2023/02/22 07:29:34;;;;;;;;;;;;;;;;;;4244839;27;19923;-38
2023/02/22 07:31:36;;;;;;;;;;;;;;;;;;4259735;27;19919;-38
2023/02/22 07:33:37;;;;;;;;;;;;;;;;;;4265342;27;20315;-40
2023/02/22 07:35:38;;;;;;;;;;;;;;;;;;4257189;27;20338;-39
2023/02/22 07:37:39;;;;;;;;;;;;;;;;;;4267081;27;19922;-41
2023/02/22 07:39:42;;;;;;;;;;;;;;;;;;4264315;27;19918;-38
2023/02/22 07:41:43;;;;;;;;;;;;;;;;;;4256361;27;19947;-40
2023/02/22 07:43:58;;;;;;;;;;;;;;;;;;4244381;27;19935;-37
2023/02/22 07:45:59;;;;;;;;;;;;;;;;;;4264171;27;20006;-38
2023/02/22 07:48:00;;;;;;;;;;;;;;;;;;4258737;27;20441;-36
2023/02/22 07:50:01;;;;;;;;;;;;;;;;;;4265927;27;19964;-37
2023/02/22 07:52:01;;;;;;;;;;;;;;;;;;4259225;27;19919;-39
2023/02/22 07:54:02;;;;;;;;;;;;;;;;;;4242299;27;20018;-37
2023/02/22 07:56:04;;;;;;;;;;;;;;;;;;4252835;27;19923;-38
2023/02/22 07:58:05;;;;;;;;;;;;;;;;;;4237622;27;20206;-41
2023/02/22 08:00:06;;;;;;;;;;;;;;;;;;4254253;27;19923;-43
2023/02/22 08:02:14;;;;;;;;;;;;;;;;;;4250744;27;19922;-38
2023/02/22 08:04:15;;;;;;;;;;;;;;;;;;4259629;27;20357;-37
2023/02/22 08:06:16;;;;;;;;;;;;;;;;;;4262047;27;19923;-37
2023/02/22 08:08:17;;;;;;;;;;;;;;;;;;4260132;27;19933;-40
2023/02/22 08:10:19;;;;;;;;;;;;;;;;;;4243405;27;19924;-41
2023/02/22 08:12:20;;;;;;;;;;;;;;;;;;4257715;27;19987;-42
2023/02/22 08:14:21;;;;;;;;;;;;;;;;;;4241970;27;19923;-40
2023/02/22 08:16:22;;;;;;;;;;;;;;;;;;4262451;27;19964;-38
2023/02/22 08:18:23;;;;;;;;;;;;;;;;;;4249125;27;19927;-41
2023/02/22 08:20:25;;;;;;;;;;;;;;;;;;4263065;27;19919;-40
2023/02/22 08:22:27;;;;;;;;;;;;;;;;;;4232819;27;20034;-38
2023/02/22 08:24:29;;;;;;;;;;;;;;;;;;4260339;27;19924;-39
2023/02/22 08:26:30;;;;;;;;;;;;;;;;;;4242965;27;19923;-42
2023/02/22 08:28:31;;;;;;;;;;;;;;;;;;4257039;27;20339;-42
2023/02/22 08:30:33;;;;;;;;;;;;;;;;;;4239118;27;19995;-43
2023/02/22 08:32:34;;;;;;;;;;;;;;;;;;4249006;27;19923;-41
2023/02/22 08:34:35;;;;;;;;;;;;;;;;;;4251649;27;19923;-40
2023/02/22 08:36:36;;;;;;;;;;;;;;;;;;4251241;27;19926;-44
2023/02/22 08:38:37;;;;;;;;;;;;;;;;;;4248754;27;19922;-39
2023/02/22 08:40:39;;;;;;;;;;;;;;;;;;4247893;27;19934;-39
2023/02/22 08:42:40;;;;;;;;;;;;;;;;;;4248272;27;19923;-39
2023/02/22 08:44:42;;;;;;;;;;;;;;;;;;4249708;27;19926;-46
2023/02/22 08:46:43;;;;;;;;;;;;;;;;;;4249207;27;19956;-43
2023/02/22 08:48:44;;;;;;;;;;;;;;;;;;4246720;27;19923;-41
2023/02/22 08:50:45;;;;;;;;;;;;;;;;;;4248017;27;19995;-42
2023/02/22 08:52:47;;;;;;;;;;;;;;;;;;4234048;27;19983;-42
2023/02/22 08:54:48;;;;;;;;;;;;;;;;;;4250082;27;19926;-41
2023/02/22 08:56:49;;;;;;;;;;;;;;;;;;4246468;27;20338;-37
2023/02/22 08:58:50;;;;;;;;;;;;;;;;;;4244834;27;19978;-39
2023/02/22 09:00:51;;;;;;;;;;;;;;;;;;4237557;27;20348;-38
2023/02/22 09:02:52;;;;;;;;;;;;;;;;;;4243235;27;19930;-40
2023/02/22 09:04:53;;;;;;;;;;;;;;;;;;4242703;27;19981;-45
2023/02/22 09:06:54;;;;;;;;;;;;;;;;;;4237143;27;19926;-43
2023/02/22 09:08:55;;;;;;;;;;;;;;;;;;4242250;27;20958;-40
2023/02/22 09:10:56;;;;;;;;;;;;;;;;;;4244839;27;19926;-46
2023/02/22 09:12:59;;;;;;;;;;;;;;;;;;4243038;27;19934;-49
2023/02/22 09:15:00;;;;;;;;;;;;;;;;;;4225166;27;19923;-48
2023/02/22 09:17:01;;;;;;;;;;;;;;;;;;4221981;27;20541;-46
2023/02/22 09:19:02;;;;;;;;;;;;;;;;;;4244307;27;20909;-44
2023/02/22 09:21:02;;;;;;;;;;;;;;;;;;4248457;27;19975;-45
2023/02/22 09:23:04;;;;;;;;;;;;;;;;;;4245401;27;20380;-44
2023/02/22 09:25:05;;;;;;;;;;;;;;;;;;4250831;27;19999;-43
2023/02/22 09:27:09;;;;;;;;;;;;;;;;;;4246685;27;21210;-46
2023/02/22 09:29:10;;;;;;;;;;;;;;;;;;4245776;27;19926;-48
2023/02/22 09:31:11;;;;;;;;;;;;;;;;;;4239555;27;20408;-40
2023/02/22 09:33:12;;;;;;;;;;;;;;;;;;4247400;27;19923;-41
2023/02/22 09:35:13;;;;;;;;;;;;;;;;;;4253234;27;19968;-46
2023/02/22 09:37:16;;;;;;;;;;;;;;;;;;4246217;27;19922;-43
2023/02/22 09:39:18;;;;;;;;;;;;;;;;;;4251051;27;19930;-40
2023/02/22 09:41:19;;;;;;;;;;;;;;;;;;4242555;27;20460;-42
2023/02/22 09:43:20;;;;;;;;;;;;;;;;;;4249822;27;19919;-45
2023/02/22 09:45:22;;;;;;;;;;;;;;;;;;4248057;27;19927;-43
2023/02/22 09:47:31;;;;;;;;;;;;;;;;;;4245754;27;19923;-46
2023/02/22 09:49:32;;;;;;;;;;;;;;;;;;4250066;27;19968;-44
2023/02/22 09:51:34;;;;;;;;;;;;;;;;;;4243105;27;20618;-46
2023/02/22 09:53:35;;;;;;;;;;;;;;;;;;4245420;27;20027;-49
2023/02/22 09:55:36;;;;;;;;;;;;;;;;;;4250565;27;21035;-45
2023/02/22 09:57:39;;;;;;;;;;;;;;;;;;4248104;27;20322;-47
2023/02/22 09:59:41;;;;;;;;;;;;;;;;;;4251740;27;19930;-42
2023/02/22 10:01:42;;;;;;;;;;;;;;;;;;4237762;27;20433;-42
2023/02/22 10:03:43;;;;;;;;;;;;;;;;;;4245975;27;19923;-44
2023/02/22 10:05:45;;;;;;;;;;;;;;;;;;4249039;27;19934;-43
2023/02/22 10:07:46;;;;;;;;;;;;;;;;;;4228702;27;19998;-42
2023/02/22 10:09:47;;;;;;;;;;;;;;;;;;4253877;27;19923;-45
2023/02/22 10:11:49;;;;;;;;;;;;;;;;;;4244698;27;19958;-42
2023/02/22 10:13:50;;;;;;;;;;;;;;;;;;4244049;27;19923;-42
2023/02/22 10:15:51;;;;;;;;;;;;;;;;;;4252147;27;19915;-38
2023/02/22 10:17:52;;;;;;;;;;;;;;;;;;4244659;27;19930;-42
2023/02/22 10:19:54;;;;;;;;;;;;;;;;;;4252727;27;20042;-42
2023/02/22 10:21:56;;;;;;;;;;;;;;;;;;4249000;27;20818;-44
2023/02/22 10:23:57;;;;;;;;;;;;;;;;;;4229507;27;19938;-45
2023/02/22 10:25:57;;;;;;;;;;;;;;;;;;4234512;27;20353;-42
2023/02/22 10:27:58;;;;;;;;;;;;;;;;;;4236126;27;21020;-45
2023/02/22 10:29:59;;;;;;;;;;;;;;;;;;4232350;27;20629;-43
2023/02/22 10:32:01;;;;;;;;;;;;;;;;;;4233774;27;19932;-44
2023/02/22 10:34:02;;;;;;;;;;;;;;;;;;4234188;27;19923;-44
2023/02/22 10:36:03;;;;;;;;;;;;;;;;;;4220134;27;20536;-42
2023/02/22 10:38:05;;;;;;;;;;;;;;;;;;4229224;27;19923;-45
2023/02/22 10:40:07;;;;;;;;;;;;;;;;;;4235441;27;19948;-42
2023/02/22 10:42:08;;;;;;;;;;;;;;;;;;4232339;27;19992;-45
2023/02/22 10:44:09;;;;;;;;;;;;;;;;;;4232300;27;20660;-46
2023/02/22 10:46:11;;;;;;;;;;;;;;;;;;4228312;27;20348;-44
2023/02/22 10:48:12;;;;;;;;;;;;;;;;;;4232323;27;19924;-44
2023/02/22 10:50:13;;;;;;;;;;;;;;;;;;4233084;27;19931;-43
2023/02/22 10:52:14;;;;;;;;;;;;;;;;;;4230683;27;19923;-48
2023/02/22 10:54:15;;;;;;;;;;;;;;;;;;4231122;27;19968;-46
2023/02/22 10:56:16;;;;;;;;;;;;;;;;;;4215967;27;20032;-50
2023/02/22 10:58:16;;;;;;;;;;;;;;;;;;4235916;27;19923;-50
2023/02/22 11:00:18;;;;;;;;;;;;;;;;;;4237110;27;19930;-47
2023/02/22 11:02:19;;;;;;;;;;;;;;;;;;4235138;27;19927;-50
2023/02/22 11:04:21;;;;;;;;;;;;;;;;;;4234756;27;20339;-51
2023/02/22 11:06:22;;;;;;;;;;;;;;;;;;4247707;27;19952;-47
2023/02/22 11:08:23;;;;;;;;;;;;;;;;;;4244700;27;19987;-49
2023/02/22 11:10:26;;;;;;;;;;;;;;;;;;4243757;27;19931;-49
2023/02/22 11:12:27;;;;;;;;;;;;;;;;;;4243308;27;20344;-50
2023/02/22 11:14:28;;;;;;;;;;;;;;;;;;4247261;27;19923;-47
2023/02/22 11:16:29;;;;;;;;;;;;;;;;;;4246893;27;20382;-51
2023/02/22 11:18:30;;;;;;;;;;;;;;;;;;4241279;27;19923;-46
2023/02/22 11:20:33;;;;;;;;;;;;;;;;;;4240493;27;20039;-48
2023/02/22 11:22:34;;;;;;;;;;;;;;;;;;4242723;27;19952;-55
2023/02/22 11:24:35;;;;;;;;;;;;;;;;;;4252422;27;19933;-44
2023/02/22 11:26:37;;;;;;;;;;;;;;;;;;4258084;27;19971;-46
2023/02/22 11:28:47;;;;;;;;;;;;;;;;;;4258113;27;19923;-50
2023/02/22 11:30:49;;;;;;;;;;;;;;;;;;4262901;27;19976;-51
2023/02/22 11:32:50;;;;;;;;;;;;;;;;;;4261538;27;19927;-45
2023/02/22 11:34:52;;;;;;;;;;;;;;;;;;4260515;27;20323;-46
2023/02/22 11:36:54;;;;;;;;;;;;;;;;;;4258546;27;19930;-45
2023/02/22 11:38:57;;;;;;;;;;;;;;;;;;4257573;27;20323;-46
2023/02/22 11:40:58;;;;;;;;;;;;;;;;;;4254134;27;19919;-52
2023/02/22 11:42:58;;;;;;;;;;;;;;;;;;4256995;27;19969;-46
2023/02/22 11:45:00;;;;;;;;;;;;;;;;;;4259433;27;20020;-47
2023/02/22 11:47:05;;;;;;;;;;;;;;;;;;4258293;27;19923;-45
2023/02/22 11:49:07;;;;;;;;;;;;;;;;;;4255875;27;19975;-43
2023/02/22 11:51:10;;;;;;;;;;;;;;;;;;4253312;27;20362;-44
2023/02/22 11:53:12;;;;;;;;;;;;;;;;;;4232698;27;19923;-49
2023/02/22 11:55:20;;;;;;;;;;;;;;;;;;4244320;27;20860;-46
2023/02/22 11:57:21;;;;;;;;;;;;;;;;;;4242397;27;19975;-47
2023/02/22 11:59:22;;;;;;;;;;;;;;;;;;4225980;27;19923;-47
2023/02/22 12:01:24;;;;;;;;;;;;;;;;;;4230113;27;20556;-45
2023/02/22 12:03:25;;;;;;;;;;;;;;;;;;4248926;27;20037;-48
2023/02/22 12:05:27;;;;;;;;;;;;;;;;;;4229015;27;19970;-47
2023/02/22 12:07:28;;;;;;;;;;;;;;;;;;4225521;27;20338;-47
2023/02/22 12:09:31;;;;;;;;;;;;;;;;;;4249829;27;19991;-49
2023/02/22 12:11:32;;;;;;;;;;;;;;;;;;4244953;27;19969;-47
2023/02/22 12:13:35;;;;;;;;;;;;;;;;;;4230754;27;21230;-47
2023/02/22 12:15:36;;;;;;;;;;;;;;;;;;4244432;27;19919;-49
2023/02/22 12:17:39;;;;;;;;;;;;;;;;;;4247203;27;19930;-46
2023/02/22 12:19:40;;;;;;;;;;;;;;;;;;4252253;27;19923;-48
2023/02/22 12:21:41;;;;;;;;;;;;;;;;;;4244448;27;19923;-44
2023/02/22 12:23:45;;;;;;;;;;;;;;;;;;4248842;27;19986;-46
2023/02/22 12:25:47;;;;;;;;;;;;;;;;;;4226764;27;19928;-44
2023/02/22 12:27:48;;;;;;;;;;;;;;;;;;4247010;27;19923;-45
2023/02/22 12:29:49;;;;;;;;;;;;;;;;;;4247924;27;19922;-46
2023/02/22 12:31:50;;;;;;;;;;;;;;;;;;4241421;27;20292;-47
2023/02/22 12:33:51;;;;;;;;;;;;;;;;;;4253772;27;19922;-45
2023/02/22 12:35:53;;;;;;;;;;;;;;;;;;4248840;27;20351;-45
2023/02/22 12:37:53;;;;;;;;;;;;;;;;;;4247344;27;19922;-44
2023/02/22 12:39:55;;;;;;;;;;;;;;;;;;4234559;27;19972;-46
2023/02/22 12:41:56;;;;;;;;;;;;;;;;;;4248457;27;20037;-42
2023/02/22 12:43:57;;;;;;;;;;;;;;;;;;4255607;27;19953;-43
2023/02/22 12:45:57;;;;;;;;;;;;;;;;;;4241710;27;19930;-45
2023/02/22 12:47:59;;;;;;;;;;;;;;;;;;4248171;27;19926;-45
2023/02/22 12:50:01;;;;;;;;;;;;;;;;;;4247357;27;19925;-44
2023/02/22 12:52:02;;;;;;;;;;;;;;;;;;4242889;27;20014;-45
2023/02/22 12:54:04;;;;;;;;;;;;;;;;;;4246971;27;19967;-42
2023/02/22 12:56:05;;;;;;;;;;;;;;;;;;4240347;27;20325;-44
2023/02/22 12:58:06;;;;;;;;;;;;;;;;;;4249326;27;19975;-46
2023/02/22 13:00:07;;;;;;;;;;;;;;;;;;4245889;27;19919;-45
2023/02/22 13:02:08;;;;;;;;;;;;;;;;;;4219750;27;20677;-46
2023/02/22 13:04:10;;;;;;;;;;;;;;;;;;4246487;27;19926;-44
2023/02/22 13:06:11;;;;;;;;;;;;;;;;;;4248195;27;19930;-42
2023/02/22 13:08:12;;;;;;;;;;;;;;;;;;4248485;27;20008;-46
2023/02/22 13:10:13;;;;;;;;;;;;;;;;;;4241441;27;20421;-43
2023/02/22 13:12:15;;;;;;;;;;;;;;;;;;4240748;27;19928;-44
2023/02/22 13:14:16;;;;;;;;;;;;;;;;;;4247439;27;19923;-45
2023/02/22 13:16:17;;;;;;;;;;;;;;;;;;4240378;27;19922;-43
2023/02/22 13:18:18;;;;;;;;;;;;;;;;;;4247815;27;19971;-42
2023/02/22 13:20:19;;;;;;;;;;;;;;;;;;4246940;27;20326;-45
2023/02/22 13:22:21;;;;;;;;;;;;;;;;;;4229814;27;19920;-42
2023/02/22 13:24:22;;;;;;;;;;;;;;;;;;4217968;27;19923;-46
2023/02/22 13:26:24;;;;;;;;;;;;;;;;;;4222796;27;20595;-43
2023/02/22 13:28:27;;;;;;;;;;;;;;;;;;4231275;27;20007;-45